Time;durP1;ratioP1;P1;durP2;ratioP2;P2;SDS_P1;SDS_P2;PMS_P1;PMS_P2;Temp;Humidity;BMP_temperature;BMP_pressure;BME280_temperature;BME280_humidity;BME280_pressure;Samples;Min_cycle;Max_cycle;Signal;HPM_P1;HPM_P2
2022/05/16 00:00:57;;;;;;;3.35;2.40;;;;;;;15.95;60.87;100778.25;4969059;28;20448;-70
2022/05/16 00:03:23;;;;;;;3.75;2.30;;;;;;;15.93;61.33;100777.56;4967572;28;20771;-71
2022/05/16 00:05:49;;;;;;;3.92;2.15;;;;;;;15.92;60.35;100774.06;4974969;28;20019;-72
2022/05/16 00:08:14;;;;;;;2.75;2.20;;;;;;;15.96;60.68;100774.53;4976880;28;20002;-73
2022/05/16 00:10:39;;;;;;;3.15;2.50;;;;;;;15.99;60.63;100762.69;5028654;28;20156;-72
2022/05/16 00:13:08;;;;;;;3.85;2.38;;;;;;;16.03;59.44;100767.50;5052203;28;20179;-72
2022/05/16 00:15:34;;;;;;;4.25;2.60;;;;;;;16.06;60.05;100764.53;5047306;28;20025;-73
2022/05/16 00:18:00;;;;;;;3.60;2.25;;;;;;;16.03;59.68;100764.84;5047759;28;20017;-72
2022/05/16 00:20:25;;;;;;;4.88;2.78;;;;;;;16.12;59.31;100768.34;5023973;28;20081;-71
2022/05/16 00:22:51;;;;;;;4.82;2.20;;;;;;;16.09;60.02;100769.50;5026966;28;20010;-71
2022/05/16 00:25:16;;;;;;;3.88;2.38;;;;;;;16.04;60.28;100766.50;5028889;28;20118;-71
2022/05/16 00:27:42;;;;;;;2.53;2.13;;;;;;;15.97;60.43;100770.88;5011511;28;20970;-72
2022/05/16 00:30:10;;;;;;;5.18;2.30;;;;;;;15.99;60.34;100768.03;5020406;28;20449;-72
2022/05/16 00:32:35;;;;;;;3.55;2.35;;;;;;;15.96;60.26;100763.88;4995404;28;20009;-71
2022/05/16 00:35:02;;;;;;;4.85;2.47;;;;;;;15.97;60.82;100760.22;4991595;28;20032;-72
2022/05/16 00:37:27;;;;;;;2.65;2.25;;;;;;;15.94;60.97;100761.38;4971118;28;20010;-72
2022/05/16 00:39:52;;;;;;;4.70;2.30;;;;;;;15.97;61.11;100754.88;5004622;28;20297;-73
2022/05/16 00:42:19;;;;;;;2.90;2.70;;;;;;;15.89;60.98;100753.06;5009689;28;20014;-71
2022/05/16 00:44:44;;;;;;;5.40;2.75;;;;;;;15.90;61.20;100753.91;4990105;28;20034;-72
2022/05/16 00:47:09;;;;;;;2.95;2.30;;;;;;;15.80;61.48;100749.56;4997944;28;20026;-72
2022/05/16 00:49:36;;;;;;;6.93;2.78;;;;;;;15.76;61.70;100748.22;4966765;28;20021;-72
2022/05/16 00:52:22;;;;;;;4.45;2.50;;;;;;;15.70;62.01;100748.91;4977380;28;20782;-72
2022/05/16 00:54:47;;;;;;;3.90;2.63;;;;;;;15.71;62.25;100750.59;4978502;28;20098;-72
2022/05/16 00:57:14;;;;;;;6.05;2.50;;;;;;;15.66;62.51;100752.09;5042372;28;20121;-72
2022/05/16 00:59:55;;;;;;;4.85;2.40;;;;;;;15.71;62.32;100745.25;5024838;28;20021;-72
2022/05/16 01:05:06;;;;;;;7.15;2.90;;;;;;;15.66;61.16;100736.91;5004819;28;20833;-72
2022/05/16 01:07:35;;;;;;;6.47;2.70;;;;;;;15.65;62.24;100739.75;4955456;28;20120;-72
2022/05/16 01:10:01;;;;;;;6.43;2.88;;;;;;;15.64;61.98;100744.25;4963689;28;20521;-73
2022/05/16 01:12:34;;;;;;;5.65;2.70;;;;;;;15.70;62.24;100748.91;4966619;28;20809;-72
2022/05/16 01:15:01;;;;;;;3.63;2.50;;;;;;;15.66;62.30;100742.25;4975341;28;20026;-71
2022/05/16 01:17:26;;;;;;;6.15;2.75;;;;;;;15.65;62.55;100737.91;4988491;28;20666;-72
2022/05/16 01:19:51;;;;;;;2.88;2.40;;;;;;;15.64;62.65;100736.25;4985438;28;20473;-71
2022/05/16 01:22:24;;;;;;;6.13;2.47;;;;;;;15.60;62.66;100733.09;4953886;28;20010;-72
2022/05/16 01:24:53;;;;;;;7.03;2.60;;;;;;;15.59;62.44;100731.41;4970830;28;20044;-71
2022/05/16 01:27:18;;;;;;;3.72;2.80;;;;;;;15.65;62.00;100724.56;4972536;28;20444;-71
2022/05/16 01:29:43;;;;;;;3.67;2.58;;;;;;;15.53;63.02;100733.94;4969183;28;20014;-72
2022/05/16 01:32:10;;;;;;;3.05;2.67;;;;;;;15.54;62.98;100732.94;4971252;28;20715;-71
2022/05/16 01:34:36;;;;;;;3.17;2.40;;;;;;;15.48;63.10;100725.63;4990354;28;20013;-71
2022/05/16 01:37:02;;;;;;;2.95;2.60;;;;;;;15.44;63.67;100731.28;4991606;28;20013;-72
2022/05/16 01:39:27;;;;;;;4.38;2.58;;;;;;;15.46;63.51;100731.94;4966276;28;20247;-71
2022/05/16 01:41:52;;;;;;;6.18;2.80;;;;;;;15.53;63.42;100733.94;4997490;28;20228;-72
2022/05/16 01:44:18;;;;;;;5.25;2.70;;;;;;;15.55;62.91;100730.13;4996886;27;20636;-71
2022/05/16 01:46:43;;;;;;;4.38;2.70;;;;;;;15.50;63.24;100726.25;4987829;28;20005;-72
2022/05/16 01:49:09;;;;;;;2.90;2.60;;;;;;;15.61;62.83;100728.59;5011686;28;20725;-72
2022/05/16 01:51:35;;;;;;;3.45;2.70;;;;;;;15.55;62.96;100730.13;4976194;28;20619;-72
2022/05/16 01:54:02;;;;;;;4.13;2.60;;;;;;;15.58;63.15;100723.59;4988953;28;20437;-71
2022/05/16 01:56:27;;;;;;;4.35;2.75;;;;;;;15.50;63.49;100731.59;4989067;27;20024;-72
2022/05/16 01:58:52;;;;;;;2.50;2.30;;;;;;;15.51;63.33;100722.59;5031168;27;20311;-71
2022/05/16 02:01:18;;;;;;;3.78;2.90;;;;;;;15.49;63.54;100724.63;5038346;27;20677;-72
2022/05/16 02:03:44;;;;;;;5.18;3.00;;;;;;;15.52;64.20;100726.94;5001201;27;20021;-71
2022/05/16 02:06:10;;;;;;;5.80;2.75;;;;;;;15.53;63.80;100717.94;4971174;28;20008;-71
2022/05/16 02:08:35;;;;;;;3.40;2.63;;;;;;;15.45;64.53;100714.31;4981182;28;20018;-72
2022/05/16 02:11:01;;;;;;;4.40;2.95;;;;;;;15.50;64.66;100715.59;4980300;28;20988;-72
2022/05/16 02:13:28;;;;;;;5.78;2.63;;;;;;;15.36;65.23;100719.81;5000114;28;20602;-72
2022/05/16 02:15:53;;;;;;;3.30;2.70;;;;;;;15.28;65.60;100707.31;4977884;28;20130;-71
2022/05/16 02:18:19;;;;;;;2.75;2.50;;;;;;;15.22;65.67;100708.00;4972059;28;20026;-71
2022/05/16 02:20:44;;;;;;;2.97;2.60;;;;;;;15.15;66.17;100702.50;4958918;28;20026;-71
2022/05/16 02:25:54;;;;;;;5.95;2.90;;;;;;;15.06;66.55;100696.34;4988741;28;20068;-71
2022/05/16 02:28:19;;;;;;;3.33;2.80;;;;;;;15.07;66.73;100695.34;4974557;28;20026;-72
2022/05/16 02:30:45;;;;;;;3.00;2.70;;;;;;;14.97;67.12;100693.84;4974658;28;20013;-71
2022/05/16 02:33:11;;;;;;;3.78;2.75;;;;;;;15.00;67.09;100690.84;4973881;28;20566;-71
2022/05/16 02:35:37;;;;;;;3.90;2.72;;;;;;;14.96;67.23;100693.03;4995310;28;20437;-71
2022/05/16 02:38:02;;;;;;;3.40;2.78;;;;;;;14.82;67.83;100688.34;4960808;28;20115;-72
2022/05/16 02:40:29;;;;;;;4.53;2.80;;;;;;;14.84;67.73;100683.69;4973410;28;20045;-72
2022/05/16 02:42:54;;;;;;;3.17;2.75;;;;;;;14.79;68.06;100680.69;4959121;28;20014;-72
2022/05/16 02:45:20;;;;;;;9.35;2.72;;;;;;;14.75;68.04;100681.03;4966934;28;20087;-71
2022/05/16 02:47:45;;;;;;;3.70;2.80;;;;;;;14.78;67.92;100685.19;4958202;28;20125;-71
2022/05/16 02:50:11;;;;;;;4.05;3.00;;;;;;;14.78;68.24;100685.19;4954606;28;20026;-71
2022/05/16 02:52:36;;;;;;;4.57;3.35;;;;;;;14.73;68.53;100691.00;4954104;28;20488;-71
2022/05/16 02:55:02;;;;;;;3.33;3.03;;;;;;;14.71;68.26;100689.53;4955326;28;20988;-71
2022/05/16 02:57:28;;;;;;;3.20;2.90;;;;;;;14.68;67.82;100696.00;4940104;28;20840;-71
2022/05/16 02:59:54;;;;;;;4.57;3.00;;;;;;;14.60;68.06;100691.44;4957667;28;20137;-71
2022/05/16 03:02:19;;;;;;;5.07;3.10;;;;;;;14.54;68.29;100685.97;4955794;28;20018;-73
2022/05/16 03:04:45;;;;;;;3.78;2.97;;;;;;;14.48;68.40;100694.59;4975895;28;20042;-72
2022/05/16 03:07:10;;;;;;;4.25;2.80;;;;;;;14.44;68.46;100688.78;4965065;28;20930;-72
2022/05/16 03:09:36;;;;;;;4.78;3.55;;;;;;;14.40;68.72;100692.75;4948997;28;20504;-71
2022/05/16 03:12:01;;;;;;;4.32;3.00;;;;;;;14.36;68.80;100688.75;4992992;28;20013;-71
2022/05/16 03:14:27;;;;;;;4.53;3.50;;;;;;;14.33;68.95;100681.09;4982049;28;20546;-71
2022/05/16 03:16:52;;;;;;;3.28;3.08;;;;;;;14.24;68.72;100673.09;4977840;28;20018;-71
2022/05/16 03:19:17;;;;;;;3.83;3.20;;;;;;;14.32;68.78;100679.44;4976695;28;20018;-72
2022/05/16 03:21:43;;;;;;;6.47;3.67;;;;;;;14.23;68.66;100681.25;4959350;28;20576;-71
2022/05/16 03:24:08;;;;;;;5.40;3.50;;;;;;;14.21;69.01;100684.06;4963764;28;20277;-72
2022/05/16 03:26:35;;;;;;;2.90;2.70;;;;;;;14.33;68.69;100670.47;4975045;28;20469;-71
2022/05/16 03:29:00;;;;;;;3.05;2.80;;;;;;;14.36;68.73;100678.13;4977597;28;20029;-71
2022/05/16 03:31:25;;;;;;;3.70;2.88;;;;;;;14.19;69.46;100675.41;4959888;28;20622;-72
2022/05/16 03:33:51;;;;;;;5.70;3.30;;;;;;;14.14;69.48;100672.38;4978224;28;20797;-71
2022/05/16 03:36:16;;;;;;;4.70;3.20;;;;;;;14.17;69.60;100681.88;4983055;28;20006;-71
2022/05/16 03:41:26;;;;;;;6.55;3.00;;;;;;;13.95;70.13;100662.84;4994514;28;20947;-71
2022/05/16 03:43:51;;;;;;;5.90;3.25;;;;;;;13.90;70.59;100667.81;4994535;28;20041;-71
2022/05/16 03:46:17;;;;;;;5.65;3.15;;;;;;;13.94;69.87;100671.81;4970023;28;20340;-71
2022/05/16 03:48:42;;;;;;;4.88;3.05;;;;;;;13.88;70.53;100672.47;4979336;28;20018;-71
2022/05/16 03:51:08;;;;;;;4.35;3.10;;;;;;;13.91;70.13;100680.13;4961971;28;20252;-71
2022/05/16 03:53:35;;;;;;;5.93;3.40;;;;;;;13.85;70.53;100678.13;4963032;28;20107;-72
2022/05/16 03:56:01;;;;;;;5.38;3.22;;;;;;;13.84;70.90;100671.13;4965108;28;20754;-71
2022/05/16 03:58:26;;;;;;;4.63;3.20;;;;;;;13.86;70.44;100671.78;4981762;28;20037;-72
2022/05/16 04:00:51;;;;;;;3.53;3.22;;;;;;;13.87;70.46;100671.63;4983585;28;20018;-72
2022/05/16 04:03:17;;;;;;;4.53;3.38;;;;;;;13.91;70.17;100667.66;4962617;28;20025;-73
2022/05/16 04:05:42;;;;;;;7.07;3.25;;;;;;;13.96;70.33;100669.00;4981815;28;20974;-72
2022/05/16 04:08:08;;;;;;;5.35;3.55;;;;;;;13.88;70.59;100667.16;4977272;28;20017;-72
2022/05/16 04:10:33;;;;;;;3.67;3.17;;;;;;;13.83;70.85;100664.13;4962540;28;20025;-72
2022/05/16 04:12:59;;;;;;;4.78;3.20;;;;;;;13.90;70.88;100666.00;4968307;28;20010;-72
2022/05/16 04:15:25;;;;;;;5.95;3.53;;;;;;;13.87;70.90;100661.00;4966600;28;19998;-72
2022/05/16 04:17:51;;;;;;;3.40;3.10;;;;;;;13.88;70.60;100661.84;4950009;28;20022;-72
2022/05/16 04:20:16;;;;;;;5.30;3.25;;;;;;;13.94;70.39;100655.03;4948670;28;20266;-72
2022/05/16 04:22:42;;;;;;;6.03;3.45;;;;;;;13.97;70.53;100649.38;4950807;28;20013;-72
2022/05/16 04:25:08;;;;;;;4.07;3.47;;;;;;;14.09;70.25;100654.25;4951861;28;20998;-72
2022/05/16 04:27:34;;;;;;;3.55;3.25;;;;;;;14.04;70.28;100651.22;4951645;28;20124;-72
2022/05/16 04:29:59;;;;;;;3.75;3.08;;;;;;;14.11;70.48;100645.28;4953033;28;20030;-72
2022/05/16 04:32:24;;;;;;;5.93;3.40;;;;;;;14.19;70.04;100646.13;4983653;28;20084;-73
2022/05/16 04:34:50;;;;;;;6.25;3.20;;;;;;;14.22;70.35;100647.63;4971193;28;20022;-73
2022/05/16 04:37:15;;;;;;;5.97;3.42;;;;;;;14.21;70.56;100641.50;4983560;28;20025;-73
2022/05/16 04:39:40;;;;;;;4.70;3.72;;;;;;;14.25;70.60;100641.97;4968187;28;20030;-73
2022/05/16 04:44:50;;;;;;;3.50;3.20;;;;;;;14.32;70.53;100637.66;4982697;28;20045;-73
2022/05/16 04:47:16;;;;;;;7.03;3.28;;;;;;;14.39;70.66;100648.50;4982180;28;20007;-74
2022/05/16 04:49:41;;;;;;;6.28;3.35;;;;;;;14.49;70.74;100656.34;4981108;28;20002;-72
2022/05/16 04:52:06;;;;;;;4.55;3.20;;;;;;;14.62;70.76;100663.84;4990723;28;20010;-73
2022/05/16 04:54:32;;;;;;;6.10;3.10;;;;;;;14.82;70.08;100659.03;4974567;28;20925;-73
2022/05/16 04:56:57;;;;;;;5.13;3.40;;;;;;;14.90;70.14;100656.38;5009795;28;20951;-73
2022/05/16 04:59:23;;;;;;;4.13;3.10;;;;;;;15.02;69.01;100651.56;4991396;28;20822;-73
2022/05/16 05:01:48;;;;;;;5.55;3.45;;;;;;;15.22;68.26;100654.69;4971878;28;20865;-73
2022/05/16 05:04:14;;;;;;;7.10;3.17;;;;;;;15.39;67.23;100655.47;4978112;28;20293;-73
2022/05/16 05:06:39;;;;;;;3.83;2.97;;;;;;;15.58;67.48;100655.09;4991959;28;20013;-74
2022/05/16 05:09:05;;;;;;;4.97;2.63;;;;;;;15.79;65.47;100654.53;5029591;28;20828;-73
2022/05/16 05:14:32;;;;;;;5.03;2.70;;;;;;;16.27;63.10;100658.94;5035154;28;20017;-74
2022/05/16 05:16:59;;;;;;;4.35;2.50;;;;;;;16.44;62.02;100652.50;4987317;28;20123;-74
2022/05/16 05:19:24;;;;;;;5.97;2.80;;;;;;;16.54;62.27;100659.44;4976422;27;20023;-74
2022/05/16 05:21:50;;;;;;;5.88;2.65;;;;;;;16.62;60.83;100656.72;5035196;27;20031;-74
2022/05/16 05:24:16;;;;;;;5.28;2.80;;;;;;;16.77;60.66;100659.44;5021109;27;20068;-73
2022/05/16 05:26:42;;;;;;;4.28;2.72;;;;;;;16.79;60.46;100658.25;4999098;27;20187;-73
2022/05/16 05:29:08;;;;;;;5.50;3.15;;;;;;;16.91;59.74;100656.00;5000217;27;20025;-73
2022/05/16 05:31:34;;;;;;;6.05;3.00;;;;;;;17.00;60.02;100664.78;4984144;27;20911;-73
2022/05/16 05:33:59;;;;;;;4.90;2.40;;;;;;;17.03;59.21;100658.25;5000058;27;20861;-72
2022/05/16 05:36:25;;;;;;;5.53;2.50;;;;;;;17.08;60.08;100658.53;4959348;28;20766;-73
2022/05/16 05:38:51;;;;;;;4.10;2.42;;;;;;;17.09;60.46;100661.03;4956129;28;20096;-72
2022/05/16 05:41:17;;;;;;;2.60;2.40;;;;;;;17.17;61.40;100663.63;4948230;28;20022;-73
2022/05/16 05:43:43;;;;;;;5.82;2.75;;;;;;;17.20;61.27;100666.94;4976295;28;20095;-73
2022/05/16 05:46:08;;;;;;;5.63;2.65;;;;;;;17.22;61.28;100662.22;4949200;28;20018;-73
2022/05/16 05:48:34;;;;;;;4.07;2.83;;;;;;;17.29;62.04;100668.53;4940396;28;20030;-73
2022/05/16 05:50:59;;;;;;;4.40;2.67;;;;;;;17.27;63.15;100667.88;4923759;28;20775;-73
2022/05/16 05:53:24;;;;;;;3.47;2.67;;;;;;;17.33;63.52;100677.84;4952987;28;20029;-73
2022/05/16 05:55:50;;;;;;;3.80;2.42;;;;;;;17.29;63.29;100679.22;4981253;28;20025;-73
2022/05/16 05:58:16;;;;;;;3.53;2.42;;;;;;;17.26;61.10;100684.91;4958212;28;20021;-73
2022/05/16 06:00:42;;;;;;;5.25;2.63;;;;;;;17.35;60.19;100683.84;4940723;28;20014;-73
2022/05/16 06:03:07;;;;;;;7.18;2.90;;;;;;;17.32;60.37;100685.03;4993584;28;20112;-74
2022/05/16 06:05:33;;;;;;;2.85;2.60;;;;;;;17.34;61.35;100695.53;4955587;28;21099;-73
2022/05/16 06:07:58;;;;;;;6.03;2.67;;;;;;;17.34;60.61;100700.91;4970217;28;20328;-73
2022/05/16 06:10:23;;;;;;;7.47;2.90;;;;;;;17.35;60.01;100710.59;4985266;28;20012;-72
2022/05/16 06:12:49;;;;;;;8.23;2.80;;;;;;;17.47;60.46;100710.97;4954538;28;20038;-73
2022/05/16 06:15:14;;;;;;;4.80;2.70;;;;;;;17.50;62.85;100714.13;5013369;27;20014;-74
2022/05/16 06:17:40;;;;;;;5.22;2.63;;;;;;;17.52;61.78;100706.72;4977139;28;20914;-74
2022/05/16 06:20:06;;;;;;;4.25;2.83;;;;;;;17.47;62.36;100714.47;4976922;28;20413;-73
2022/05/16 06:22:34;;;;;;;6.82;3.15;;;;;;;17.56;62.83;100722.44;4959561;28;20036;-72
2022/05/16 06:27:47;;;;;;;5.18;3.47;;;;;;;17.58;65.61;100731.09;4961065;28;20020;-73
2022/05/16 06:30:13;;;;;;;3.55;2.67;;;;;;;17.63;66.47;100728.72;4995569;28;20017;-74
2022/05/16 06:32:38;;;;;;;6.80;3.20;;;;;;;17.64;66.62;100735.69;4939246;28;20026;-75
2022/05/16 06:35:04;;;;;;;3.90;2.70;;;;;;;17.68;65.32;100737.00;4969730;28;20174;-74
2022/05/16 06:37:30;;;;;;;5.97;2.72;;;;;;;17.72;65.14;100740.97;4974848;28;20189;-74
2022/05/16 06:39:55;;;;;;;5.65;2.80;;;;;;;17.75;66.04;100737.91;4959521;28;20026;-74
2022/05/16 06:42:20;;;;;;;5.50;2.63;;;;;;;17.82;60.18;100744.22;4964577;28;20030;-74
2022/05/16 06:44:46;;;;;;;4.75;2.38;;;;;;;17.86;60.82;100745.50;4994196;28;20046;-74
2022/05/16 06:47:11;;;;;;;4.05;2.17;;;;;;;17.83;59.82;100745.88;4984076;28;20138;-74
2022/05/16 06:49:37;;;;;;;5.22;2.53;;;;;;;17.85;59.23;100746.53;4936804;28;20026;-72
2022/05/16 06:52:03;;;;;;;7.20;2.53;;;;;;;17.84;58.06;100741.34;4978678;28;20801;-72
2022/05/16 06:54:28;;;;;;;3.53;2.35;;;;;;;17.88;59.07;100744.47;4978835;28;20022;-72
2022/05/16 06:56:53;;;;;;;4.22;2.38;;;;;;;17.88;57.82;100741.81;4967548;28;20567;-71
2022/05/16 06:59:19;;;;;;;4.93;2.55;;;;;;;17.95;59.08;100753.47;4969199;28;20451;-75
2022/05/16 07:01:45;;;;;;;6.47;2.67;;;;;;;17.93;58.30;100760.84;4973928;28;20040;-73
2022/05/16 07:04:10;;;;;;;4.15;2.50;;;;;;;17.86;59.75;100748.16;4964027;28;20048;-73
2022/05/16 07:06:36;;;;;;;5.40;2.90;;;;;;;17.86;60.59;100756.19;4960193;28;20010;-72
2022/05/16 07:09:01;;;;;;;5.07;2.40;;;;;;;17.83;60.78;100756.56;4959899;28;20018;-74
2022/05/16 07:11:27;;;;;;;4.35;2.50;;;;;;;17.81;60.84;100757.75;4965606;28;20033;-73
2022/05/16 07:13:52;;;;;;;4.95;2.30;;;;;;;17.67;60.41;100762.13;4942987;28;20403;-73
2022/05/16 07:16:18;;;;;;;4.00;2.42;;;;;;;17.67;60.61;100768.28;4952932;28;20010;-74
2022/05/16 07:18:43;;;;;;;6.05;2.38;;;;;;;17.66;60.50;100771.16;4970761;28;20019;-73
2022/05/16 07:21:08;;;;;;;4.40;2.38;;;;;;;17.58;62.12;100773.91;4979416;28;20381;-73
2022/05/16 07:23:34;;;;;;;4.40;2.60;;;;;;;17.62;62.12;100783.22;4960145;28;20033;-74
2022/05/16 07:28:43;;;;;;;3.03;2.30;;;;;;;17.61;64.86;100778.88;4967677;28;20038;-74
2022/05/16 07:31:10;;;;;;;4.43;2.40;;;;;;;17.56;64.89;100782.13;4964314;28;20320;-74
2022/05/16 07:33:35;;;;;;;4.95;2.50;;;;;;;17.46;64.96;100786.91;4969132;28;20026;-73
2022/05/16 07:36:00;;;;;;;4.10;2.72;;;;;;;17.36;66.10;100788.97;4963662;28;20038;-75
2022/05/16 07:38:26;;;;;;;5.45;2.70;;;;;;;17.46;67.44;100793.06;4952798;28;20042;-73
2022/05/16 07:40:51;;;;;;;3.22;2.60;;;;;;;17.42;67.34;100794.44;4954305;28;20377;-74
2022/05/16 07:43:17;;;;;;;3.03;2.65;;;;;;;17.41;68.29;100795.44;4928649;28;20549;-73
2022/05/16 07:45:43;;;;;;;9.63;3.00;;;;;;;17.44;68.95;100795.13;4954005;28;20821;-73
2022/05/16 07:48:08;;;;;;;5.28;2.65;;;;;;;17.41;69.76;100798.13;4952706;28;20033;-74
2022/05/16 07:50:36;;;;;;;18.52;5.40;;;;;;;17.41;72.27;100808.00;4941826;28;20034;-73
2022/05/16 07:53:03;;;;;;;15.98;4.97;;;;;;;17.45;74.39;100804.78;4953173;28;20395;-73
2022/05/16 07:55:28;;;;;;;10.82;3.70;;;;;;;17.30;73.96;100814.59;4953927;28;20022;-74
2022/05/16 07:57:53;;;;;;;8.95;3.60;;;;;;;17.22;75.57;100817.34;4956463;28;20255;-73
2022/05/16 08:00:20;;;;;;;6.40;3.67;;;;;;;17.17;78.50;100820.56;4968816;28;20235;-73
2022/05/16 08:02:45;;;;;;;8.90;3.97;;;;;;;17.03;80.11;100814.13;4973330;28;20169;-73
2022/05/16 08:05:12;;;;;;;6.20;3.92;;;;;;;17.03;81.14;100819.47;4992433;28;20434;-74
2022/05/16 08:10:29;;;;;;;8.38;3.80;;;;;;;16.96;82.20;100831.88;4991742;28;20605;-73
2022/05/16 08:10:29;;;;;;;9.68;4.50;;;;;;;16.91;81.88;100828.94;4977074;28;20112;-74
2022/05/16 08:12:55;;;;;;;7.80;4.28;;;;;;;16.86;83.03;100839.28;4973230;28;20389;-73
2022/05/16 08:15:21;;;;;;;6.85;4.53;;;;;;;17.05;83.57;100846.88;4972705;28;20018;-73
2022/05/16 08:17:46;;;;;;;8.30;4.18;;;;;;;16.99;84.37;100839.53;4971090;28;20025;-73
2022/05/16 08:20:11;;;;;;;9.25;4.90;;;;;;;16.97;84.86;100836.22;4969513;28;20515;-74
2022/05/16 08:22:37;;;;;;;8.70;4.70;;;;;;;16.90;85.60;100838.78;4934234;28;20095;-73
2022/05/16 08:25:02;;;;;;;5.63;4.30;;;;;;;16.93;86.11;100842.94;4951322;28;20183;-74
2022/05/16 08:27:28;;;;;;;8.73;4.45;;;;;;;16.89;86.28;100838.94;4935952;28;20233;-73
2022/05/16 08:29:54;;;;;;;11.05;4.70;;;;;;;16.88;86.65;100842.59;4933275;28;20002;-74
2022/05/16 08:32:23;;;;;;;10.00;5.20;;;;;;;16.84;86.47;100839.47;4953634;28;20013;-73
2022/05/16 08:34:48;;;;;;;5.82;4.43;;;;;;;16.88;86.48;100851.50;4938746;28;20104;-74
2022/05/16 08:40:04;;;;;;;;;;;;;;;16.93;85.94;100851.78;4990280;28;20497;-74
2022/05/16 08:42:51;;;;;;;6.07;4.60;;;;;;;16.86;86.10;100850.78;4973540;28;19900;-74
2022/05/16 08:45:36;;;;;;;7.65;4.90;;;;;;;16.88;86.84;100842.59;4945184;28;20129;-73
2022/05/16 08:48:20;;;;;;;10.73;5.10;;;;;;;17.01;86.76;100832.19;4972682;28;20027;-73
2022/05/16 08:51:18;;;;;;;5.72;5.03;;;;;;;17.25;86.80;100839.22;4974040;28;20018;-75
2022/05/16 08:53:46;;;;;;;8.88;5.55;;;;;;;17.37;86.54;100831.59;4958050;28;20068;-73
2022/05/16 08:56:16;;;;;;;12.57;5.30;;;;;;;17.58;86.67;100835.44;4956716;28;20014;-73
2022/05/16 08:59:00;;;;;;;9.27;5.22;;;;;;;17.71;86.03;100835.69;4955443;28;20490;-74
2022/05/16 09:01:26;;;;;;;;;;;;;;;17.92;85.55;100834.16;4974547;28;20165;-75
2022/05/16 09:03:59;;;;;;;4.90;4.40;;;;;;;18.27;85.10;100839.81;4972335;28;20633;-73
2022/05/16 09:06:28;;;;;;;9.13;4.63;;;;;;;18.51;83.51;100838.66;4961422;28;20165;-75
2022/05/16 09:08:55;;;;;;;5.18;4.15;;;;;;;18.75;82.04;100840.19;4955722;28;20862;-74
2022/05/16 09:11:26;;;;;;;7.97;3.72;;;;;;;19.00;81.90;100837.22;4968329;28;20029;-74
2022/05/16 09:13:57;;;;;;;6.00;3.70;;;;;;;19.14;79.34;100844.38;4992218;28;20021;-73
2022/05/16 09:16:41;;;;;;;5.15;3.50;;;;;;;19.25;77.67;100840.38;4963712;28;20029;-74
2022/05/16 09:19:12;;;;;;;4.55;3.83;;;;;;;19.42;76.42;100830.19;5006737;28;20047;-74
2022/05/16 09:21:48;;;;;;;5.78;3.47;;;;;;;19.49;76.61;100836.44;4998632;28;20391;-74
2022/05/16 09:24:28;;;;;;;4.78;3.60;;;;;;;19.54;76.93;100828.66;4971461;28;20098;-73
2022/05/16 09:26:59;;;;;;;4.45;3.65;;;;;;;19.73;78.07;100835.19;4961601;28;20005;-73
2022/05/16 09:29:26;;;;;;;4.60;3.50;;;;;;;19.94;77.03;100832.66;4974214;28;20439;-75
2022/05/16 09:31:55;;;;;;;5.85;3.65;;;;;;;20.02;75.22;100837.88;4956863;28;20604;-75
2022/05/16 09:34:20;;;;;;;6.65;3.60;;;;;;;20.56;73.90;100833.63;4990443;28;20032;-75
2022/05/16 09:36:49;;;;;;;5.60;3.58;;;;;;;21.14;70.27;100843.97;4989603;28;20001;-74
2022/05/16 09:39:20;;;;;;;4.38;3.50;;;;;;;21.70;66.11;100828.47;4988655;28;20006;-74
2022/05/16 09:42:22;;;;;;;3.90;3.33;;;;;;;22.15;64.55;100844.78;4988912;28;20009;-75
2022/05/16 09:44:54;;;;;;;4.65;3.33;;;;;;;22.18;63.72;100833.59;4977783;28;20110;-75
2022/05/16 09:47:28;;;;;;;5.15;3.28;;;;;;;22.43;63.98;100832.91;4979535;28;20606;-75
2022/05/16 09:50:02;;;;;;;5.00;3.25;;;;;;;22.91;63.10;100842.44;4988925;28;20033;-75
2022/05/16 09:52:31;;;;;;;5.57;3.45;;;;;;;23.22;61.72;100844.34;4969208;28;20384;-75
2022/05/16 09:55:07;;;;;;;6.78;3.20;;;;;;;23.53;57.96;100855.34;4982653;28;20068;-74
2022/05/16 09:57:41;;;;;;;5.13;3.00;;;;;;;23.93;60.37;100839.63;5004172;28;20025;-74
2022/05/16 10:00:22;;;;;;;6.18;3.17;;;;;;;24.45;61.12;100835.72;4987744;28;20498;-75
2022/05/16 10:02:54;;;;;;;4.72;3.13;;;;;;;24.66;58.27;100826.31;5024899;28;20246;-75
2022/05/16 10:05:20;;;;;;;4.30;3.03;;;;;;;24.92;58.17;100827.84;5004631;28;20101;-74
2022/05/16 10:07:47;;;;;;;3.83;3.00;;;;;;;25.31;57.90;100835.59;5005057;28;20240;-75
2022/05/16 10:10:19;;;;;;;5.00;3.00;;;;;;;25.80;57.15;100824.59;4971407;28;20570;-75
2022/05/16 10:12:44;;;;;;;5.07;3.08;;;;;;;26.07;55.02;100829.53;5007142;28;20029;-75
2022/05/16 10:15:11;;;;;;;5.20;3.00;;;;;;;26.07;54.06;100822.22;4999300;28;20021;-75
2022/05/16 10:17:37;;;;;;;3.53;2.90;;;;;;;26.23;50.42;100831.53;4983222;28;20031;-75
2022/05/16 10:20:15;;;;;;;4.22;2.65;;;;;;;26.68;49.71;100830.78;4988464;28;20240;-75
2022/05/16 10:22:40;;;;;;;4.75;2.70;;;;;;;26.91;49.97;100829.06;4987543;28;20814;-75
2022/05/16 10:25:08;;;;;;;3.72;2.63;;;;;;;27.35;48.62;100828.50;4973421;28;20097;-75
2022/05/16 10:27:35;;;;;;;3.75;2.92;;;;;;;27.69;48.15;100826.56;4992666;28;20023;-75
2022/05/16 10:30:20;;;;;;;5.18;2.55;;;;;;;28.01;44.71;100828.69;4989378;28;20147;-75
2022/05/16 10:35:34;;;;;;;5.15;2.38;;;;;;;28.55;46.38;100816.25;4994240;28;20042;-75
2022/05/16 10:38:02;;;;;;;3.40;2.72;;;;;;;28.75;41.73;100811.06;5004144;28;20075;-74
2022/05/16 10:40:41;;;;;;;3.97;2.50;;;;;;;28.81;41.84;100819.28;4983938;28;20116;-74
2022/05/16 10:43:12;;;;;;;3.05;2.28;;;;;;;29.41;41.00;100823.66;4986158;28;20017;-76
2022/05/16 10:45:38;;;;;;;3.65;2.50;;;;;;;29.57;39.60;100835.50;5007395;28;20057;-75
2022/05/16 10:48:24;;;;;;;3.42;2.13;;;;;;;29.84;38.02;100831.03;4971213;28;20028;-75
2022/05/16 10:51:07;;;;;;;3.28;1.95;;;;;;;30.23;36.59;100830.69;5003179;28;20147;-75
2022/05/16 10:53:45;;;;;;;4.15;2.25;;;;;;;29.93;36.09;100830.28;4987934;28;20006;-75
2022/05/16 10:56:37;;;;;;;3.72;2.10;;;;;;;30.01;36.62;100828.97;4988908;28;20032;-75
2022/05/16 10:59:07;;;;;;;2.28;2.08;;;;;;;30.77;37.87;100821.31;4986072;28;20029;-76
2022/05/16 11:01:51;;;;;;;2.00;1.80;;;;;;;31.27;36.23;100817.00;4987586;28;20013;-75
2022/05/16 11:04:50;;;;;;;3.10;2.00;;;;;;;30.79;35.26;100817.22;5001528;28;20137;-75
2022/05/16 11:07:25;;;;;;;3.75;1.80;;;;;;;31.07;34.69;100815.09;5013542;28;20190;-75
2022/05/16 11:09:59;;;;;;;3.80;1.80;;;;;;;31.12;35.51;100811.53;5002625;28;20210;-74
2022/05/16 11:12:41;;;;;;;1.90;1.80;;;;;;;31.91;36.32;100811.16;5001189;28;20034;-74
2022/05/16 11:15:37;;;;;;;2.83;1.80;;;;;;;32.37;31.65;100805.53;4984521;28;20264;-75
2022/05/16 11:18:27;;;;;;;3.40;1.75;;;;;;;32.41;31.85;100803.88;4987833;28;20020;-77
2022/05/16 11:21:20;;;;;;;2.80;1.90;;;;;;;32.71;32.57;100802.06;4996623;28;20022;-75
2022/05/16 11:23:53;;;;;;;2.00;1.90;;;;;;;32.39;32.42;100797.84;5004506;28;20028;-75
2022/05/16 11:26:28;;;;;;;;;;;;;;;32.86;31.52;100796.47;5002337;28;20388;-75
2022/05/16 11:29:18;;;;;;;2.75;1.85;;;;;;;32.52;31.51;100799.16;5019134;28;20005;-75
2022/05/16 11:32:21;;;;;;;4.47;1.80;;;;;;;31.57;32.92;100809.03;5014086;28;20021;-75
2022/05/16 11:35:06;;;;;;;3.80;1.90;;;;;;;31.13;33.00;100811.25;5009032;28;21990;-75
2022/05/16 11:37:51;;;;;;;3.47;1.63;;;;;;;30.41;35.13;100800.19;4986632;28;20010;-75
2022/05/16 11:40:21;;;;;;;6.07;1.80;;;;;;;29.97;36.87;100811.47;4954516;28;20347;-75
2022/05/16 11:43:13;;;;;;;7.00;1.85;;;;;;;29.26;36.75;100813.47;4985260;28;20022;-74
2022/05/16 11:45:49;;;;;;;3.45;2.08;;;;;;;28.65;39.08;100807.41;4971933;28;20090;-75
2022/05/16 11:48:23;;;;;;;8.07;1.90;;;;;;;27.97;40.42;100821.25;5000655;28;20021;-74
2022/05/16 11:50:52;;;;;;;3.63;2.08;;;;;;;27.84;43.72;100834.13;4976849;28;20033;-75
2022/05/16 11:53:26;;;;;;;6.60;2.40;;;;;;;26.97;45.73;100838.94;4991995;28;20192;-74
2022/05/16 12:01:39;;;;;;;3.22;2.30;;;;;;;26.35;46.04;100840.44;4976021;28;20149;-75
2022/05/16 12:04:12;;;;;;;4.05;2.50;;;;;;;26.11;46.48;100845.09;4981474;28;20021;-75